Time;durP1;ratioP1;P1;durP2;ratioP2;P2;SDS_P1;SDS_P2;PMS_P1;PMS_P2;Temp;Humidity;BMP_temperature;BMP_pressure;BME280_temperature;BME280_humidity;BME280_pressure;Samples;Min_cycle;Max_cycle;Signal;HPM_P1;HPM_P2
2023/01/07 00:02:15;;;;;;;2.28;1.05;;;;;;;11.33;100.00;100805.72;8254989;28;20042;-55
2023/01/07 00:06:18;;;;;;;1.33;1.00;;;;;;;11.37;100.00;100809.00;8256374;28;20048;-56
2023/01/07 00:10:19;;;;;;;1.10;0.90;;;;;;;11.52;100.00;100799.50;8256090;28;20042;-55
2023/01/07 00:14:19;;;;;;;0.82;0.75;;;;;;;11.57;100.00;100800.81;8256554;28;20092;-53
2023/01/07 00:18:20;;;;;;;1.33;0.80;;;;;;;11.59;100.00;100793.38;8256314;28;20045;-53
2023/01/07 00:22:20;;;;;;;0.55;0.50;;;;;;;11.59;100.00;100789.84;8256267;28;20042;-52
2023/01/07 00:26:22;;;;;;;1.45;0.68;;;;;;;11.64;100.00;100792.97;8261528;28;20042;-53
2023/01/07 00:30:23;;;;;;;1.05;0.52;;;;;;;11.66;100.00;100786.44;8261421;28;20034;-52
2023/01/07 00:34:24;;;;;;;0.70;0.50;;;;;;;11.72;100.00;100776.91;8277188;28;20495;-51
2023/01/07 00:38:24;;;;;;;0.63;0.60;;;;;;;11.82;100.00;100778.63;8262128;28;21260;-53
2023/01/07 00:43:25;;;;;;;1.65;0.77;;;;;;;11.91;100.00;100768.78;8260996;28;20074;-51
2023/01/07 00:46:45;;;;;;;4.85;1.75;;;;;;;11.92;100.00;100770.47;8260007;28;20126;-53
2023/01/07 00:50:47;;;;;;;5.82;2.13;;;;;;;11.87;100.00;100754.66;8261020;28;20034;-51
2023/01/07 00:54:47;;;;;;;1.23;0.90;;;;;;;11.95;100.00;100762.06;8257658;28;20153;-53
2023/01/07 00:58:48;;;;;;;0.77;0.50;;;;;;;11.93;100.00;100759.50;8258072;28;20092;-52
2023/01/07 01:02:51;;;;;;;0.50;0.40;;;;;;;11.87;100.00;100759.22;8258831;28;20510;-52
2023/01/07 01:06:53;;;;;;;1.00;0.40;;;;;;;11.77;100.00;100751.09;8257558;28;20201;-51
2023/01/07 01:10:53;;;;;;;0.55;0.43;;;;;;;11.69;100.00;100750.94;8256285;28;20050;-50
2023/01/07 01:14:54;;;;;;;0.52;0.40;;;;;;;11.59;100.00;100750.03;8260835;28;20050;-54
2023/01/07 01:18:54;;;;;;;0.77;0.50;;;;;;;11.55;100.00;100742.34;8260514;28;20455;-52
2023/01/07 01:22:55;;;;;;;0.90;0.40;;;;;;;11.41;100.00;100740.91;8260960;28;20144;-53
2023/01/07 01:26:55;;;;;;;0.60;0.50;;;;;;;11.37;100.00;100739.47;8260788;28;20035;-52
2023/01/07 01:30:56;;;;;;;0.82;0.50;;;;;;;11.23;100.00;100737.16;8260083;28;20069;-53
2023/01/07 01:34:59;;;;;;;1.88;0.45;;;;;;;11.19;100.00;100741.16;8260347;28;20045;-54
2023/01/07 01:39:00;;;;;;;0.50;0.50;;;;;;;11.11;100.00;100741.00;8274652;28;20042;-52
2023/01/07 01:43:04;;;;;;;2.45;0.93;;;;;;;11.04;100.00;100742.53;8258994;28;20403;-53
2023/01/07 01:47:14;;;;;;;0.93;0.60;;;;;;;11.08;100.00;100726.91;8254354;28;20490;-51
2023/01/07 01:51:18;;;;;;;1.63;0.70;;;;;;;11.12;100.00;100729.19;8259260;28;20038;-52
2023/01/07 01:55:27;;;;;;;1.60;1.13;;;;;;;10.85;100.00;100715.44;8259526;28;20096;-52
2023/01/07 01:59:33;;;;;;;0.40;0.40;;;;;;;10.81;100.00;100718.56;8259614;28;20062;-54
2023/01/07 02:03:37;;;;;;;1.67;0.80;;;;;;;10.83;100.00;100712.00;8259794;28;20108;-53
2023/01/07 02:07:39;;;;;;;4.32;0.60;;;;;;;10.87;100.00;100707.19;8257998;28;20093;-53
2023/01/07 02:25:49;;;;;;;1.15;0.70;;;;;;;10.96;100.00;100719.88;8318963;28;20385;-52
2023/01/07 02:30:10;;;;;;;2.65;0.70;;;;;;;10.91;100.00;100703.19;8317169;28;20426;-52
2023/01/07 02:39:04;;;;;;;0.70;0.60;;;;;;;10.64;100.00;100695.72;8321172;28;20438;-52
2023/01/07 02:43:34;;;;;;;1.67;1.10;;;;;;;10.54;100.00;100699.38;8284636;28;20081;-51
2023/01/07 02:47:37;;;;;;;1.63;1.13;;;;;;;10.46;100.00;100691.94;8284949;28;20045;-52
2023/01/07 02:51:40;;;;;;;2.92;1.85;;;;;;;10.28;100.00;100690.03;8287123;28;20065;-51
2023/01/07 02:56:10;;;;;;;2.83;1.30;;;;;;;10.15;100.00;100682.13;8314695;28;20042;-50
2023/01/07 03:00:51;;;;;;;2.05;1.15;;;;;;;10.00;100.00;100684.28;8317534;28;20039;-51
2023/01/07 03:05:10;;;;;;;1.95;1.50;;;;;;;9.92;100.00;100680.53;8315901;28;20405;-52
2023/01/07 03:09:21;;;;;;;1.80;1.40;;;;;;;9.98;100.00;100674.59;8314990;28;20038;-52
2023/01/07 03:13:32;;;;;;;6.72;2.58;;;;;;;10.01;100.00;100666.25;8317035;28;20406;-52
2023/01/07 03:17:43;;;;;;;1.60;1.45;;;;;;;10.06;100.00;100666.69;8316556;28;20564;-50
2023/01/07 03:21:46;;;;;;;2.47;1.58;;;;;;;10.30;100.00;100663.69;8315921;28;20033;-49
2023/01/07 03:25:50;;;;;;;1.85;1.13;;;;;;;11.13;100.00;100655.13;8316923;28;20418;-52
2023/01/07 03:29:53;;;;;;;1.98;0.88;;;;;;;11.58;100.00;100656.28;8315500;28;20490;-51
2023/01/07 03:34:00;;;;;;;1.63;0.75;;;;;;;11.86;100.00;100660.84;8316012;28;22215;-53
2023/01/07 03:38:03;;;;;;;1.15;0.90;;;;;;;12.05;100.00;100648.25;8316253;28;20045;-54
2023/01/07 03:43:07;;;;;;;2.28;0.88;;;;;;;12.21;98.75;100651.19;8315388;28;20045;-53
2023/01/07 03:46:27;;;;;;;2.33;1.20;;;;;;;12.42;96.77;100644.56;8274700;28;20054;-54
2023/01/07 03:50:29;;;;;;;0.85;0.50;;;;;;;12.46;96.06;100650.50;8259901;28;20038;-54
2023/01/07 03:54:30;;;;;;;1.63;0.70;;;;;;;12.48;96.13;100641.25;8286024;28;20498;-54
2023/01/07 03:58:30;;;;;;;3.00;0.60;;;;;;;12.46;96.08;100639.66;8293302;28;20427;-53
2023/01/07 04:02:31;;;;;;;2.13;0.70;;;;;;;12.50;95.69;100638.38;8294273;28;20041;-53
2023/01/07 04:06:32;;;;;;;2.72;0.80;;;;;;;12.55;95.17;100636.06;8293444;28;20042;-54
2023/01/07 04:10:33;;;;;;;1.35;0.85;;;;;;;12.54;94.75;100618.09;8293838;28;20427;-54
2023/01/07 04:14:33;;;;;;;1.70;0.95;;;;;;;12.52;94.85;100612.81;8293789;28;20120;-54
2023/01/07 04:18:34;;;;;;;1.05;0.95;;;;;;;12.48;95.16;100614.13;8293019;28;20037;-54
2023/01/07 04:22:34;;;;;;;2.47;0.90;;;;;;;12.50;95.06;100605.84;8293171;28;20128;-54
2023/01/07 04:26:35;;;;;;;2.58;1.00;;;;;;;12.48;95.17;100602.41;8293238;28;20034;-53
2023/01/07 04:30:37;;;;;;;1.38;0.90;;;;;;;12.51;94.69;100607.53;8292888;28;20061;-56
2023/01/07 04:34:38;;;;;;;1.40;1.17;;;;;;;12.52;94.40;100592.97;8292696;28;20045;-56
2023/01/07 04:38:40;;;;;;;2.58;1.20;;;;;;;12.48;94.26;100597.00;8291895;28;20037;-56
2023/01/07 04:42:40;;;;;;;1.50;0.82;;;;;;;12.51;93.74;100591.28;8281254;28;20038;-57
2023/01/07 04:46:43;;;;;;;2.13;0.80;;;;;;;12.51;93.32;100585.84;8260407;28;20080;-57
2023/01/07 04:50:45;;;;;;;3.13;0.88;;;;;;;12.51;93.09;100583.13;8260173;28;20038;-56
2023/01/07 04:54:46;;;;;;;2.22;0.85;;;;;;;12.51;92.84;100575.00;8287662;28;20040;-57
2023/01/07 04:58:47;;;;;;;1.23;1.00;;;;;;;12.50;92.80;100573.31;8291317;28;20494;-51
2023/01/07 05:02:48;;;;;;;1.58;1.08;;;;;;;12.39;94.19;100570.78;8292113;28;20351;-51
2023/01/07 05:06:48;;;;;;;6.95;1.42;;;;;;;12.24;95.80;100561.44;8254201;28;20041;-52
2023/01/07 05:10:49;;;;;;;3.15;1.30;;;;;;;12.06;97.74;100565.94;8273769;28;20050;-54
2023/01/07 05:14:50;;;;;;;2.28;1.38;;;;;;;11.93;99.19;100564.41;8259876;28;20049;-53
2023/01/07 05:18:51;;;;;;;1.65;1.38;;;;;;;11.89;99.30;100563.00;8258963;28;20044;-52
2023/01/07 05:22:52;;;;;;;1.80;1.10;;;;;;;11.84;100.00;100559.88;8271185;28;20050;-52
2023/01/07 05:26:53;;;;;;;5.40;1.40;;;;;;;11.98;98.23;100550.44;8268074;28;20034;-52
2023/01/07 05:30:54;;;;;;;1.73;1.10;;;;;;;12.01;97.15;100549.28;8258408;28;20492;-50
2023/01/07 05:34:54;;;;;;;2.95;0.88;;;;;;;11.99;97.47;100546.75;8271643;28;20077;-53
2023/01/07 05:38:56;;;;;;;1.85;1.10;;;;;;;11.99;97.35;100545.88;8290462;28;20164;-48
2023/01/07 05:42:56;;;;;;;1.90;1.25;;;;;;;12.04;96.83;100539.00;8289848;28;20165;-52
2023/01/07 05:46:57;;;;;;;4.03;1.27;;;;;;;12.02;96.60;100523.91;8291056;28;20037;-49
2023/01/07 05:50:57;;;;;;;4.38;1.42;;;;;;;12.01;97.07;100533.03;8290234;28;20049;-53
2023/01/07 05:54:58;;;;;;;1.20;1.10;;;;;;;11.93;97.77;100526.50;8288183;28;20041;-51
2023/01/07 05:58:58;;;;;;;1.88;1.20;;;;;;;11.86;98.24;100519.97;8289584;28;20052;-54
2023/01/07 06:02:59;;;;;;;1.45;1.20;;;;;;;11.85;98.60;100523.69;8274157;28;20038;-52
2023/01/07 06:07:00;;;;;;;2.30;0.75;;;;;;;11.83;98.76;100514.84;8285682;28;20067;-53
2023/01/07 06:11:01;;;;;;;3.05;1.30;;;;;;;11.81;98.96;100511.41;8283717;28;20454;-52
2023/01/07 06:15:01;;;;;;;2.22;1.55;;;;;;;11.76;99.43;100519.16;8290345;28;20042;-53
2023/01/07 06:19:02;;;;;;;4.72;1.55;;;;;;;11.66;99.73;100518.34;8289535;28;20049;-53
2023/01/07 06:23:03;;;;;;;3.83;1.55;;;;;;;11.66;99.50;100506.66;8289649;28;20084;-51
2023/01/07 06:27:04;;;;;;;2.63;1.60;;;;;;;11.74;99.00;100506.75;8284970;28;20061;-53
2023/01/07 06:31:04;;;;;;;2.40;1.40;;;;;;;11.82;98.28;100501.44;8288291;28;20030;-52
2023/01/07 06:35:06;;;;;;;3.58;1.58;;;;;;;11.92;97.15;100506.84;8284896;28;20066;-52
2023/01/07 06:39:06;;;;;;;1.55;1.33;;;;;;;11.92;96.85;100509.56;8282071;28;20052;-53
2023/01/07 06:43:07;;;;;;;1.90;1.20;;;;;;;11.93;96.39;100499.41;8268502;28;20125;-52
2023/01/07 06:47:07;;;;;;;1.52;1.20;;;;;;;12.00;95.78;100498.78;8272620;28;20104;-52
2023/01/07 06:51:08;;;;;;;2.65;1.70;;;;;;;11.92;96.31;100501.41;8288900;28;20137;-50
2023/01/07 06:55:09;;;;;;;1.80;1.52;;;;;;;11.89;96.48;100500.72;8288234;28;20046;-51
2023/01/07 06:59:10;;;;;;;2.47;1.65;;;;;;;11.90;95.70;100498.88;8268097;28;20500;-53
2023/01/07 07:03:10;;;;;;;3.95;1.33;;;;;;;11.93;94.44;100483.13;8263082;28;20411;-51
2023/01/07 07:07:11;;;;;;;1.30;0.98;;;;;;;12.10;91.04;100483.38;8285757;28;20038;-52
2023/01/07 07:11:11;;;;;;;4.50;0.98;;;;;;;12.18;90.07;100480.72;8276513;28;20046;-52
2023/01/07 07:15:12;;;;;;;3.13;1.00;;;;;;;12.09;90.94;100470.78;8278233;28;20035;-53
2023/01/07 07:19:12;;;;;;;2.45;1.52;;;;;;;12.02;91.84;100469.72;8261777;28;20042;-52
2023/01/07 07:23:13;;;;;;;2.20;1.33;;;;;;;11.84;94.03;100456.94;8277942;28;20036;-53
2023/01/07 07:27:14;;;;;;;2.75;1.40;;;;;;;11.76;94.40;100459.56;8294638;28;20463;-53
2023/01/07 07:31:14;;;;;;;1.42;1.10;;;;;;;11.83;93.45;100451.69;8294641;28;20029;-51
2023/01/07 07:35:15;;;;;;;3.65;1.20;;;;;;;11.85;93.27;100453.25;8294377;28;20045;-53
2023/01/07 07:39:15;;;;;;;2.50;1.55;;;;;;;11.81;94.01;100451.81;8294920;28;20042;-52
2023/01/07 07:43:16;;;;;;;1.95;1.50;;;;;;;11.77;93.97;100442.31;8295062;28;20034;-53
2023/01/07 07:47:17;;;;;;;2.55;2.00;;;;;;;11.85;93.28;100434.28;8282249;28;20045;-54
2023/01/07 07:51:17;;;;;;;5.78;2.65;;;;;;;11.82;93.64;100442.72;8274485;28;20046;-48
2023/01/07 07:55:18;;;;;;;3.33;1.65;;;;;;;11.88;93.01;100431.28;8295431;28;20490;-51
2023/01/07 07:59:18;;;;;;;6.15;3.30;;;;;;;11.86;93.13;100422.44;8294100;28;20037;-52
2023/01/07 08:03:18;;;;;;;2.75;2.15;;;;;;;11.81;93.71;100419.31;8294439;28;20067;-51
2023/01/07 08:07:19;;;;;;;2.67;1.58;;;;;;;11.87;93.04;100418.72;8292876;28;20065;-53
2023/01/07 08:11:20;;;;;;;5.65;1.70;;;;;;;11.81;93.43;100413.91;8291548;28;20045;-50
2023/01/07 08:15:20;;;;;;;2.63;1.50;;;;;;;11.84;93.34;100416.31;8293787;28;20474;-54
2023/01/07 08:19:20;;;;;;;3.65;1.95;;;;;;;11.85;93.56;100426.16;8282290;28;20502;-54
2023/01/07 08:23:21;;;;;;;2.53;1.83;;;;;;;11.82;94.14;100418.34;8274508;28;20042;-51
2023/01/07 08:27:21;;;;;;;2.95;1.80;;;;;;;11.86;93.59;100417.03;8294141;28;20045;-51
2023/01/07 08:31:22;;;;;;;3.47;1.50;;;;;;;11.81;93.31;100405.78;8293416;28;20558;-52
2023/01/07 08:35:22;;;;;;;2.75;1.33;;;;;;;11.77;93.86;100401.69;8280403;28;20399;-52
2023/01/07 08:39:23;;;;;;;1.85;1.13;;;;;;;11.85;92.93;100404.50;8279369;28;20038;-52
2023/01/07 08:43:23;;;;;;;1.88;1.25;;;;;;;11.83;92.81;100387.53;8270704;28;20443;-50
2023/01/07 08:47:26;;;;;;;1.67;1.20;;;;;;;12.16;91.33;100385.16;8277996;28;20038;-52
2023/01/07 08:51:27;;;;;;;1.73;1.20;;;;;;;12.66;88.76;100378.19;8271379;28;20040;-53
2023/01/07 08:55:27;;;;;;;3.60;1.42;;;;;;;12.57;88.36;100380.00;8277029;28;20050;-54
2023/01/07 08:59:28;;;;;;;3.38;1.70;;;;;;;12.59;89.27;100369.00;8274698;28;20684;-53
2023/01/07 09:03:28;;;;;;;1.80;1.50;;;;;;;13.82;83.93;100374.84;8269295;28;20038;-52
2023/01/07 09:07:28;;;;;;;7.15;2.08;;;;;;;14.68;79.55;100368.88;8283270;28;20042;-52
2023/01/07 09:11:29;;;;;;;3.25;1.20;;;;;;;14.98;78.81;100365.44;8286328;28;20048;-54
2023/01/07 09:15:29;;;;;;;1.77;1.30;;;;;;;15.22;77.22;100353.66;8284754;28;20050;-54
2023/01/07 09:19:30;;;;;;;2.90;1.15;;;;;;;15.43;76.20;100343.91;8284125;28;20034;-53
2023/01/07 09:23:30;;;;;;;2.63;1.20;;;;;;;15.29;75.69;100344.63;8275724;28;20068;-53
2023/01/07 09:27:31;;;;;;;4.50;1.30;;;;;;;15.51;75.69;100343.88;8292226;28;20502;-54
2023/01/07 09:31:31;;;;;;;3.38;1.40;;;;;;;15.42;75.59;100327.75;8288836;28;20054;-53
2023/01/07 09:35:32;;;;;;;3.58;1.38;;;;;;;14.96;76.43;100332.09;8287409;28;20038;-53
2023/01/07 09:39:32;;;;;;;2.88;1.00;;;;;;;15.36;75.59;100320.22;8284204;28;20048;-55
2023/01/07 09:43:40;;;;;;;3.70;1.30;;;;;;;15.69;73.51;100328.16;8282780;28;20414;-53
2023/01/07 09:47:44;;;;;;;3.35;1.48;;;;;;;16.11;73.37;100332.31;8265985;28;20045;-52
2023/01/07 09:51:52;;;;;;;2.50;1.08;;;;;;;16.05;71.70;100327.59;8288746;28;20049;-54
2023/01/07 09:55:54;;;;;;;7.90;1.30;;;;;;;15.72;71.53;100332.38;8291052;28;20474;-53
2023/01/07 09:59:55;;;;;;;1.55;1.30;;;;;;;15.52;72.26;100326.50;8290534;28;20042;-54
2023/01/07 10:09:03;;;;;;;2.55;1.10;;;;;;;14.98;73.87;100330.03;8399023;27;20393;-53
2023/01/07 10:13:43;;;;;;;4.32;1.25;;;;;;;14.77;74.41;100315.28;8360052;28;20414;-53
2023/01/07 10:18:07;;;;;;;2.13;1.40;;;;;;;15.15;74.68;100318.09;8377291;28;20585;-53
2023/01/07 10:22:20;;;;;;;2.17;1.30;;;;;;;14.94;73.57;100297.88;8370174;28;20047;-52
2023/01/07 10:26:31;;;;;;;3.17;1.50;;;;;;;13.83;77.06;100305.88;8378223;28;20036;-54
2023/01/07 10:30:39;;;;;;;2.90;1.95;;;;;;;13.31;80.91;100299.78;8362123;28;20537;-53
2023/01/07 10:34:44;;;;;;;3.90;2.20;;;;;;;13.10;82.15;100291.19;8358003;28;20045;-51
2023/01/07 10:38:55;;;;;;;6.43;2.10;;;;;;;12.97;83.99;100288.03;8356698;28;20041;-52
2023/01/07 10:43:06;;;;;;;3.03;1.63;;;;;;;13.21;82.89;100276.47;8331610;28;20038;-53
2023/01/07 10:47:35;;;;;;;1.67;1.10;;;;;;;13.29;78.72;100258.34;8329662;28;20043;-53
2023/01/07 10:51:52;;;;;;;3.10;1.15;;;;;;;13.38;77.10;100251.94;8356484;28;20514;-53
2023/01/07 10:56:30;;;;;;;0.98;0.73;;;;;;;13.43;74.53;100243.28;8364894;28;20051;-52
2023/01/07 11:00:31;;;;;;;2.35;1.02;;;;;;;13.37;75.25;100224.94;8363979;28;20084;-54
2023/01/07 11:04:32;;;;;;;1.45;0.75;;;;;;;13.41;74.87;100231.72;8363517;28;20029;-55
2023/01/07 11:08:38;;;;;;;1.88;0.88;;;;;;;13.43;74.21;100210.72;8375391;28;20048;-55
2023/01/07 11:12:51;;;;;;;1.63;0.90;;;;;;;13.34;74.07;100195.41;8385763;28;20079;-52
2023/01/07 11:16:59;;;;;;;2.03;1.10;;;;;;;13.26;75.01;100192.66;8343132;28;20036;-53
2023/01/07 11:21:00;;;;;;;0.88;0.70;;;;;;;13.19;75.03;100197.06;8321117;28;20450;-54
2023/01/07 11:25:22;;;;;;;1.15;0.70;;;;;;;13.11;75.33;100184.31;8331629;28;20037;-52
2023/01/07 11:29:26;;;;;;;1.88;0.70;;;;;;;13.17;75.29;100166.50;8320765;28;20041;-53
2023/01/07 11:33:38;;;;;;;1.35;0.70;;;;;;;13.25;73.54;100147.53;8322307;28;20109;-53
2023/01/07 11:37:40;;;;;;;1.05;0.60;;;;;;;13.34;72.52;100136.53;8316794;28;20073;-53
2023/01/07 11:42:41;;;;;;;1.40;0.68;;;;;;;14.80;69.13;100121.72;8327552;28;20034;-52
2023/01/07 11:46:30;;;;;;;1.20;0.47;;;;;;;15.64;66.21;100107.06;8335764;28;20048;-54
2023/01/07 11:50:41;;;;;;;0.73;0.50;;;;;;;15.77;63.58;100113.78;8297374;28;20041;-52
2023/01/07 11:54:42;;;;;;;0.82;0.40;;;;;;;15.00;66.06;100107.47;8331066;28;20202;-54
2023/01/07 11:58:45;;;;;;;0.80;0.60;;;;;;;14.95;67.80;100103.59;8327940;28;20041;-53
2023/01/07 12:02:59;;;;;;;2.03;0.60;;;;;;;14.77;68.09;100084.81;8322126;28;20042;-53
2023/01/07 12:07:13;;;;;;;1.52;0.70;;;;;;;14.31;69.81;100082.97;8336061;28;20381;-53
2023/01/07 12:11:14;;;;;;;1.13;0.68;;;;;;;14.00;70.90;100078.44;8350796;28;20464;-52
2023/01/07 12:15:19;;;;;;;1.27;1.00;;;;;;;14.08;70.24;100059.38;8385981;28;20040;-53
2023/01/07 12:24:10;;;;;;;4.10;1.27;;;;;;;15.00;68.17;100036.69;8317269;28;20404;-52
2023/01/07 12:28:16;;;;;;;1.83;1.63;;;;;;;15.10;67.34;100033.75;8317204;28;20038;-54
2023/01/07 12:32:35;;;;;;;2.10;1.48;;;;;;;14.81;67.22;100036.31;8312476;28;20041;-53
2023/01/07 12:36:45;;;;;;;1.20;1.10;;;;;;;14.43;68.98;100024.47;8311399;28;20129;-53
2023/01/07 12:40:56;;;;;;;1.55;1.08;;;;;;;14.24;69.53;100021.31;8313174;28;20398;-54
2023/01/07 12:45:02;;;;;;;1.77;0.93;;;;;;;14.11;69.84;100010.09;8315188;28;20056;-53
2023/01/07 12:53:34;;;;;;;1.58;1.02;;;;;;;13.64;71.42;100007.34;8401524;27;20801;-54
2023/01/07 12:57:38;;;;;;;1.52;1.10;;;;;;;13.62;72.18;99998.53;8388560;27;20211;-54
2023/01/07 13:01:49;;;;;;;1.35;1.05;;;;;;;13.55;72.83;99982.06;8411492;28;20044;-55
2023/01/07 13:05:55;;;;;;;1.15;0.90;;;;;;;13.60;72.82;99967.97;8388582;27;20127;-55
2023/01/07 13:10:01;;;;;;;1.30;1.10;;;;;;;13.65;72.09;99990.03;8397435;27;20050;-55
2023/01/07 13:14:02;;;;;;;2.25;1.30;;;;;;;13.80;71.73;99988.28;8382542;27;20127;-57
2023/01/07 13:22:39;;;;;;;2.38;1.25;;;;;;;13.94;71.58;99965.84;8348624;27;21035;-55
2023/01/07 13:27:19;;;;;;;1.75;1.10;;;;;;;13.90;71.12;99975.34;8349567;28;20049;-55
2023/01/07 13:31:48;;;;;;;1.85;1.40;;;;;;;13.83;71.37;99963.50;8349560;28;20107;-55
2023/01/07 13:40:26;;;;;;;2.50;1.48;;;;;;;13.85;71.97;99961.47;8345127;27;20865;-54
2023/01/07 13:48:54;;;;;;;1.48;0.98;;;;;;;13.84;71.01;99951.59;8315188;28;20373;-53
2023/01/07 13:52:58;;;;;;;1.73;1.20;;;;;;;13.74;71.43;99945.53;8315946;28;20052;-56
2023/01/07 14:02:16;;;;;;;2.08;1.45;;;;;;;13.61;72.85;99934.38;8270181;28;20436;-54
2023/01/07 14:10:32;;;;;;;2.53;1.50;;;;;;;13.51;72.55;99920.16;8346396;27;20390;-55
2023/01/07 14:15:00;;;;;;;3.08;1.70;;;;;;;13.41;72.82;99920.31;8339732;28;20033;-56
2023/01/07 14:19:25;;;;;;;2.72;1.70;;;;;;;13.39;73.07;99905.25;8343573;28;20090;-55
2023/01/07 14:23:53;;;;;;;2.58;1.50;;;;;;;13.29;73.67;99905.41;8346116;28;20049;-56
2023/01/07 14:28:29;;;;;;;4.22;1.80;;;;;;;13.13;74.69;99910.88;8327056;28;20038;-54
2023/01/07 14:32:33;;;;;;;1.30;1.20;;;;;;;13.01;74.82;99911.38;8331127;28;20462;-54
2023/01/07 14:41:15;;;;;;;2.40;1.42;;;;;;;12.86;75.28;99899.50;8261252;28;20406;-54
2023/01/07 14:50:14;;;;;;;1.98;1.50;;;;;;;12.76;75.39;99886.13;8351539;27;20400;-56
2023/01/07 14:59:03;;;;;;;2.80;1.70;;;;;;;12.64;75.55;99881.19;8319143;28;20364;-55
2023/01/07 15:03:43;;;;;;;3.35;2.00;;;;;;;12.51;76.41;99880.84;8314477;28;20045;-55
2023/01/07 15:07:50;;;;;;;2.97;1.88;;;;;;;12.44;76.36;99875.25;8291146;28;20045;-57
2023/01/07 15:16:18;;;;;;;;;;;;;;;12.32;76.81;99864.91;8316989;28;20038;-55
2023/01/07 15:20:18;;;;;;;4.20;1.83;;;;;;;12.30;76.87;99864.22;8316976;28;20167;-54
2023/01/07 15:24:40;;;;;;;2.92;2.00;;;;;;;12.23;77.17;99849.66;8297422;28;20073;-56
2023/01/07 15:28:50;;;;;;;1.88;1.55;;;;;;;12.21;77.15;99851.69;8288430;28;20050;-56
2023/01/07 15:33:03;;;;;;;2.10;1.40;;;;;;;12.16;77.26;99832.34;8294502;28;20596;-56
2023/01/07 15:37:05;;;;;;;3.15;2.17;;;;;;;12.20;77.01;99801.22;8297342;28;20080;-56
2023/01/07 15:41:37;;;;;;;2.65;2.10;;;;;;;12.24;77.08;99821.53;8303820;28;20222;-54
2023/01/07 15:45:38;;;;;;;2.13;1.52;;;;;;;12.05;78.00;99829.97;8304691;28;20116;-55
2023/01/07 15:49:39;;;;;;;2.45;1.70;;;;;;;11.92;78.60;99818.78;8296028;28;20503;-54
2023/01/07 15:53:42;;;;;;;2.70;1.90;;;;;;;11.80;79.64;99827.22;8301450;28;20423;-55
2023/01/07 15:57:45;;;;;;;3.30;2.13;;;;;;;11.68;80.06;99822.25;8311110;28;20042;-53
2023/01/07 16:01:48;;;;;;;4.88;2.38;;;;;;;11.58;80.68;99827.78;8315336;28;20038;-53
2023/01/07 16:05:49;;;;;;;3.42;2.30;;;;;;;11.53;81.05;99824.72;8312773;28;20061;-54
2023/01/07 16:09:50;;;;;;;3.00;1.65;;;;;;;11.59;80.92;99818.66;8287562;28;20048;-53
2023/01/07 16:13:58;;;;;;;3.33;2.50;;;;;;;11.57;80.75;99836.06;8293132;28;20543;-53
2023/01/07 16:18:00;;;;;;;2.58;1.83;;;;;;;11.50;81.74;99818.81;8292948;28;20465;-53
2023/01/07 16:22:02;;;;;;;3.47;1.95;;;;;;;11.34;82.42;99814.16;8281385;28;20136;-52
2023/01/07 16:26:13;;;;;;;5.47;2.30;;;;;;;11.28;83.45;99785.03;8274500;28;20510;-54
2023/01/07 16:30:15;;;;;;;3.85;2.53;;;;;;;11.24;83.54;99770.16;8275450;28;20042;-55
2023/01/07 16:38:36;;;;;;;2.83;2.60;;;;;;;11.14;84.98;99790.22;8300422;27;20422;-53
2023/01/07 16:42:36;;;;;;;3.90;2.83;;;;;;;11.09;85.69;99788.00;8286993;28;20034;-52
2023/01/07 16:46:41;;;;;;;5.45;2.60;;;;;;;11.03;86.30;99788.66;8281012;28;20053;-53
2023/01/07 16:50:43;;;;;;;2.97;2.20;;;;;;;11.05;86.54;99791.19;8279174;28;20507;-52
2023/01/07 16:54:45;;;;;;;2.92;2.22;;;;;;;11.10;86.05;99788.88;8277749;28;20535;-53
2023/01/07 16:58:51;;;;;;;4.30;2.35;;;;;;;11.17;86.12;99779.94;8280531;28;20046;-52
2023/01/07 17:02:58;;;;;;;3.10;2.38;;;;;;;11.19;86.14;99788.72;8270036;28;20487;-53
2023/01/07 17:07:00;;;;;;;3.72;2.65;;;;;;;11.19;86.38;99786.00;8278694;28;20113;-54
2023/01/07 17:11:04;;;;;;;3.65;2.78;;;;;;;11.19;86.37;99788.72;8275052;28;20045;-56
2023/01/07 17:15:33;;;;;;;5.72;3.28;;;;;;;11.17;86.70;99779.94;8253242;28;20042;-54
2023/01/07 17:19:39;;;;;;;4.13;2.78;;;;;;;11.36;85.85;99781.53;8276730;28;20116;-54
2023/01/07 17:23:41;;;;;;;4.65;2.85;;;;;;;11.21;86.37;99781.31;8285377;28;20101;-48
2023/01/07 17:28:04;;;;;;;6.03;3.72;;;;;;;11.06;87.12;99774.81;8277726;28;20060;-49
2023/01/07 17:32:05;;;;;;;3.90;3.20;;;;;;;11.18;86.84;99786.19;8271084;28;20115;-51
2023/01/07 17:36:11;;;;;;;3.20;2.67;;;;;;;11.18;86.90;99787.03;8271927;28;20058;-53
2023/01/07 17:40:13;;;;;;;4.32;3.25;;;;;;;11.23;86.53;99773.84;8275118;28;20038;-52
2023/01/07 17:44:13;;;;;;;4.45;2.80;;;;;;;11.39;85.39;99784.75;8274577;28;20034;-54
2023/01/07 17:48:14;;;;;;;4.72;3.40;;;;;;;11.28;86.45;99767.94;8266578;28;20129;-53
2023/01/07 17:52:14;;;;;;;4.55;3.53;;;;;;;11.39;85.17;99768.53;8256617;28;20049;-51
2023/01/07 17:56:15;;;;;;;5.63;2.55;;;;;;;11.51;84.71;99756.38;8253393;28;20042;-54
2023/01/07 18:00:19;;;;;;;4.47;3.08;;;;;;;11.64;83.43;99748.66;8250986;28;20407;-51
2023/01/07 18:04:20;;;;;;;4.03;2.92;;;;;;;11.78;82.37;99730.91;8268706;28;20034;-53
2023/01/07 18:08:20;;;;;;;7.05;3.42;;;;;;;11.78;82.43;99731.75;8241919;28;20089;-54
2023/01/07 18:12:36;;;;;;;4.43;2.90;;;;;;;11.82;82.15;99727.69;8253025;28;20065;-54
2023/01/07 18:16:36;;;;;;;3.65;2.83;;;;;;;12.00;80.64;99710.44;8229214;28;20047;-52
2023/01/07 18:20:37;;;;;;;3.88;3.40;;;;;;;11.93;81.58;99709.41;8244767;28;20108;-52
2023/01/07 18:24:37;;;;;;;6.25;3.60;;;;;;;11.79;82.67;99690.13;8247511;28;20420;-52
2023/01/07 18:28:38;;;;;;;3.65;3.15;;;;;;;11.64;83.84;99694.50;8251032;28;20511;-53
2023/01/07 18:32:39;;;;;;;5.03;3.40;;;;;;;11.80;82.81;99712.63;8245272;28;20460;-52
2023/01/07 18:36:40;;;;;;;2.75;1.95;;;;;;;12.09;80.10;99695.88;8248540;28;20121;-52
2023/01/07 18:40:42;;;;;;;2.67;1.75;;;;;;;12.40;77.85;99721.25;8257883;28;20115;-53
2023/01/07 18:44:42;;;;;;;2.95;1.42;;;;;;;12.58;76.84;99709.19;8231252;28;20042;-53
2023/01/07 18:48:43;;;;;;;2.50;2.10;;;;;;;12.68;76.06;99714.41;8244491;28;20096;-52
2023/01/07 18:52:44;;;;;;;3.20;1.70;;;;;;;12.75;75.50;99713.53;8259689;28;20100;-52
2023/01/07 18:56:44;;;;;;;2.45;1.95;;;;;;;12.74;75.68;99717.28;8233823;28;20043;-51
2023/01/07 19:00:45;;;;;;;3.47;2.20;;;;;;;12.62;76.47;99704.25;8255744;28;20045;-53
2023/01/07 19:04:47;;;;;;;6.30;2.90;;;;;;;12.62;76.47;99699.69;8238299;28;20058;-54
2023/01/07 19:08:47;;;;;;;4.72;2.90;;;;;;;12.61;76.85;99702.56;8251278;28;20113;-52
2023/01/07 19:12:49;;;;;;;3.60;2.20;;;;;;;12.58;76.73;99714.59;8229764;28;20117;-52
2023/01/07 19:16:49;;;;;;;3.80;2.50;;;;;;;12.65;76.88;99712.03;8241186;28;20042;-51
2023/01/07 19:20:50;;;;;;;2.55;2.30;;;;;;;12.65;76.57;99690.34;8231291;28;20050;-55
2023/01/07 19:24:50;;;;;;;2.83;2.20;;;;;;;12.64;76.53;99696.78;8242076;28;20046;-56
2023/01/07 19:28:50;;;;;;;3.58;2.10;;;;;;;12.67;76.22;99700.00;8227154;28;20097;-56
2023/01/07 19:32:52;;;;;;;2.67;1.92;;;;;;;12.73;75.70;99690.31;8241155;28;20051;-56
2023/01/07 19:36:52;;;;;;;2.88;2.10;;;;;;;12.70;76.16;99706.94;8241739;28;20061;-56
2023/01/07 19:40:52;;;;;;;4.28;2.38;;;;;;;12.55;76.92;99697.84;8224387;28;20069;-56
2023/01/07 19:44:53;;;;;;;2.40;2.20;;;;;;;12.52;77.58;99695.47;8241925;28;20386;-54
2023/01/07 19:48:53;;;;;;;2.85;2.10;;;;;;;12.52;77.75;99703.59;8237478;28;20042;-56
2023/01/07 19:52:54;;;;;;;1.73;1.35;;;;;;;12.57;78.43;99706.66;8236905;28;20039;-56
2023/01/07 19:56:54;;;;;;;2.47;1.88;;;;;;;12.41;81.63;99706.69;8227509;28;20113;-56
2023/01/07 20:01:02;;;;;;;3.22;2.00;;;;;;;12.27;82.72;99707.38;8223731;28;20141;-55
2023/01/07 20:05:02;;;;;;;3.03;2.03;;;;;;;12.23;82.73;99693.31;8251743;28;20038;-56
2023/01/07 20:09:09;;;;;;;3.90;1.80;;;;;;;12.25;82.88;99695.84;8223730;28;20030;-56
2023/01/07 20:13:09;;;;;;;2.65;1.80;;;;;;;12.31;82.74;99690.59;8228489;28;20082;-55
2023/01/07 20:17:10;;;;;;;1.98;1.60;;;;;;;12.36;81.65;99685.53;8237628;28;20049;-56
2023/01/07 20:21:12;;;;;;;3.35;1.77;;;;;;;12.36;81.62;99681.94;8226715;28;20031;-56